sensor_id;sensor_type;location;lat;lon;timestamp;temperature;humidity
12233;DHT22;6179;51.748;8.728;2023-06-19T00:05:51;23.90;63.60
12233;DHT22;6179;51.748;8.728;2023-06-19T00:11:52;23.90;64.40
12233;DHT22;6179;51.748;8.728;2023-06-19T00:17:53;23.60;64.80
12233;DHT22;6179;51.748;8.728;2023-06-19T00:23:53;23.90;64.10
12233;DHT22;6179;51.748;8.728;2023-06-19T00:29:54;23.90;63.90
12233;DHT22;6179;51.748;8.728;2023-06-19T00:36:01;23.60;64.10
12233;DHT22;6179;51.748;8.728;2023-06-19T00:42:02;24.00;63.00
12233;DHT22;6179;51.748;8.728;2023-06-19T00:48:04;23.90;63.40
12233;DHT22;6179;51.748;8.728;2023-06-19T00:54:05;24.10;63.30
12233;DHT22;6179;51.748;8.728;2023-06-19T01:00:08;24.00;63.80
12233;DHT22;6179;51.748;8.728;2023-06-19T01:06:14;23.50;65.10
12233;DHT22;6179;51.748;8.728;2023-06-19T01:12:28;23.50;65.90
12233;DHT22;6179;51.748;8.728;2023-06-19T01:18:36;23.40;65.30
12233;DHT22;6179;51.748;8.728;2023-06-19T01:24:37;23.60;65.50
12233;DHT22;6179;51.748;8.728;2023-06-19T01:30:40;23.60;65.80
12233;DHT22;6179;51.748;8.728;2023-06-19T01:36:42;23.60;66.90
12233;DHT22;6179;51.748;8.728;2023-06-19T01:42:44;23.30;68.20
12233;DHT22;6179;51.748;8.728;2023-06-19T01:48:45;23.30;68.30
12233;DHT22;6179;51.748;8.728;2023-06-19T01:54:46;23.00;68.20
12233;DHT22;6179;51.748;8.728;2023-06-19T02:00:46;23.10;68.30
12233;DHT22;6179;51.748;8.728;2023-06-19T02:06:47;23.00;68.40
12233;DHT22;6179;51.748;8.728;2023-06-19T02:12:48;23.10;67.40
12233;DHT22;6179;51.748;8.728;2023-06-19T02:18:49;23.30;67.00
12233;DHT22;6179;51.748;8.728;2023-06-19T02:24:50;23.50;68.00
12233;DHT22;6179;51.748;8.728;2023-06-19T02:30:53;23.30;68.30
12233;DHT22;6179;51.748;8.728;2023-06-19T02:36:54;23.20;68.90
12233;DHT22;6179;51.748;8.728;2023-06-19T02:42:55;22.90;69.00
12233;DHT22;6179;51.748;8.728;2023-06-19T02:48:56;22.80;69.40
12233;DHT22;6179;51.748;8.728;2023-06-19T02:54:57;22.60;69.40
12233;DHT22;6179;51.748;8.728;2023-06-19T03:00:57;22.90;68.20
12233;DHT22;6179;51.748;8.728;2023-06-19T03:06:58;23.00;68.30
12233;DHT22;6179;51.748;8.728;2023-06-19T03:12:59;22.80;68.80
12233;DHT22;6179;51.748;8.728;2023-06-19T03:19:00;22.70;69.10
12233;DHT22;6179;51.748;8.728;2023-06-19T03:25:01;22.70;69.40
12233;DHT22;6179;51.748;8.728;2023-06-19T03:31:02;22.80;69.50
12233;DHT22;6179;51.748;8.728;2023-06-19T03:37:03;22.90;70.20
12233;DHT22;6179;51.748;8.728;2023-06-19T03:43:04;22.90;71.30
12233;DHT22;6179;51.748;8.728;2023-06-19T03:49:05;22.70;71.40
12233;DHT22;6179;51.748;8.728;2023-06-19T03:55:06;22.70;70.10
12233;DHT22;6179;51.748;8.728;2023-06-19T04:01:07;22.80;72.70
12233;DHT22;6179;51.748;8.728;2023-06-19T04:07:08;23.10;71.30
12233;DHT22;6179;51.748;8.728;2023-06-19T04:13:09;22.90;73.20
12233;DHT22;6179;51.748;8.728;2023-06-19T04:19:09;23.10;72.10
12233;DHT22;6179;51.748;8.728;2023-06-19T04:25:10;23.20;72.40
12233;DHT22;6179;51.748;8.728;2023-06-19T04:31:11;23.00;75.20
12233;DHT22;6179;51.748;8.728;2023-06-19T04:37:12;23.00;74.60
12233;DHT22;6179;51.748;8.728;2023-06-19T04:43:13;23.10;75.80
12233;DHT22;6179;51.748;8.728;2023-06-19T04:49:14;22.90;77.20
12233;DHT22;6179;51.748;8.728;2023-06-19T04:55:15;22.70;77.50
12233;DHT22;6179;51.748;8.728;2023-06-19T05:01:16;22.90;76.90
12233;DHT22;6179;51.748;8.728;2023-06-19T05:07:17;22.90;77.00
12233;DHT22;6179;51.748;8.728;2023-06-19T05:13:18;23.10;77.60
12233;DHT22;6179;51.748;8.728;2023-06-19T05:19:19;23.30;78.40
12233;DHT22;6179;51.748;8.728;2023-06-19T05:25:20;23.50;78.30
12233;DHT22;6179;51.748;8.728;2023-06-19T05:31:20;23.80;76.90
12233;DHT22;6179;51.748;8.728;2023-06-19T05:37:21;24.30;71.60
12233;DHT22;6179;51.748;8.728;2023-06-19T05:43:22;24.50;71.10
12233;DHT22;6179;51.748;8.728;2023-06-19T05:49:24;24.40;72.60
12233;DHT22;6179;51.748;8.728;2023-06-19T05:55:25;24.20;72.20
12233;DHT22;6179;51.748;8.728;2023-06-19T06:01:28;24.40;74.20
12233;DHT22;6179;51.748;8.728;2023-06-19T06:07:29;24.90;73.30
12233;DHT22;6179;51.748;8.728;2023-06-19T06:13:30;24.90;73.20
12233;DHT22;6179;51.748;8.728;2023-06-19T06:19:31;24.90;74.50
12233;DHT22;6179;51.748;8.728;2023-06-19T06:25:32;25.20;72.70
12233;DHT22;6179;51.748;8.728;2023-06-19T06:31:32;25.00;73.80
12233;DHT22;6179;51.748;8.728;2023-06-19T06:37:34;25.20;72.90
12233;DHT22;6179;51.748;8.728;2023-06-19T06:43:35;24.60;75.50
12233;DHT22;6179;51.748;8.728;2023-06-19T06:49:36;24.70;75.70
12233;DHT22;6179;51.748;8.728;2023-06-19T06:55:37;25.20;74.60
12233;DHT22;6179;51.748;8.728;2023-06-19T07:01:38;25.10;76.30
12233;DHT22;6179;51.748;8.728;2023-06-19T07:07:39;25.00;75.10
12233;DHT22;6179;51.748;8.728;2023-06-19T07:13:39;24.90;75.70
12233;DHT22;6179;51.748;8.728;2023-06-19T07:19:41;25.00;79.20
12233;DHT22;6179;51.748;8.728;2023-06-19T07:25:42;25.20;76.90
12233;DHT22;6179;51.748;8.728;2023-06-19T07:31:43;25.20;75.50
12233;DHT22;6179;51.748;8.728;2023-06-19T07:37:44;25.10;74.70
12233;DHT22;6179;51.748;8.728;2023-06-19T07:43:45;25.00;76.50
12233;DHT22;6179;51.748;8.728;2023-06-19T07:49:46;25.50;75.60
12233;DHT22;6179;51.748;8.728;2023-06-19T07:55:47;25.20;75.00
12233;DHT22;6179;51.748;8.728;2023-06-19T08:01:48;24.80;80.30
12233;DHT22;6179;51.748;8.728;2023-06-19T08:07:49;24.90;78.40
12233;DHT22;6179;51.748;8.728;2023-06-19T08:13:50;24.80;77.00
12233;DHT22;6179;51.748;8.728;2023-06-19T08:19:50;24.60;78.70
12233;DHT22;6179;51.748;8.728;2023-06-19T08:25:51;24.00;79.60
12233;DHT22;6179;51.748;8.728;2023-06-19T08:31:52;24.20;80.30
12233;DHT22;6179;51.748;8.728;2023-06-19T08:37:52;24.50;81.20
12233;DHT22;6179;51.748;8.728;2023-06-19T08:43:54;24.80;79.00
12233;DHT22;6179;51.748;8.728;2023-06-19T08:49:55;25.00;77.30
12233;DHT22;6179;51.748;8.728;2023-06-19T08:55:56;25.50;75.30
12233;DHT22;6179;51.748;8.728;2023-06-19T09:01:58;25.60;74.50
12233;DHT22;6179;51.748;8.728;2023-06-19T09:07:59;25.40;74.80
12233;DHT22;6179;51.748;8.728;2023-06-19T09:14:01;25.20;75.90
12233;DHT22;6179;51.748;8.728;2023-06-19T09:20:02;24.90;76.20
12233;DHT22;6179;51.748;8.728;2023-06-19T09:26:05;25.60;72.60
12233;DHT22;6179;51.748;8.728;2023-06-19T09:32:23;25.40;74.30
12233;DHT22;6179;51.748;8.728;2023-06-19T09:38:26;25.90;73.80
12233;DHT22;6179;51.748;8.728;2023-06-19T09:44:31;26.10;72.10
12233;DHT22;6179;51.748;8.728;2023-06-19T09:50:40;26.30;71.90
12233;DHT22;6179;51.748;8.728;2023-06-19T09:56:42;26.20;73.10
12233;DHT22;6179;51.748;8.728;2023-06-19T10:02:45;25.10;73.80
12233;DHT22;6179;51.748;8.728;2023-06-19T10:08:47;25.60;74.10
12233;DHT22;6179;51.748;8.728;2023-06-19T10:14:48;25.60;73.80
12233;DHT22;6179;51.748;8.728;2023-06-19T10:20:49;25.90;74.20
12233;DHT22;6179;51.748;8.728;2023-06-19T10:27:01;26.20;71.00
12233;DHT22;6179;51.748;8.728;2023-06-19T10:33:02;26.40;71.60
12233;DHT22;6179;51.748;8.728;2023-06-19T10:39:03;26.70;68.80
12233;DHT22;6179;51.748;8.728;2023-06-19T10:45:06;27.00;67.20
12233;DHT22;6179;51.748;8.728;2023-06-19T10:51:18;25.70;72.80
12233;DHT22;6179;51.748;8.728;2023-06-19T10:57:27;26.20;71.90
12233;DHT22;6179;51.748;8.728;2023-06-19T11:03:32;26.30;70.80
12233;DHT22;6179;51.748;8.728;2023-06-19T11:09:32;25.70;74.50
12233;DHT22;6179;51.748;8.728;2023-06-19T11:15:34;26.40;70.50
12233;DHT22;6179;51.748;8.728;2023-06-19T11:21:36;26.50;73.30
12233;DHT22;6179;51.748;8.728;2023-06-19T11:27:39;26.80;69.90
12233;DHT22;6179;51.748;8.728;2023-06-19T11:33:40;27.00;68.90
12233;DHT22;6179;51.748;8.728;2023-06-19T11:39:43;27.40;67.70
12233;DHT22;6179;51.748;8.728;2023-06-19T11:45:48;27.70;67.80
12233;DHT22;6179;51.748;8.728;2023-06-19T11:51:49;27.20;68.20
12233;DHT22;6179;51.748;8.728;2023-06-19T11:57:50;26.70;71.50
12233;DHT22;6179;51.748;8.728;2023-06-19T12:03:51;27.10;69.60
12233;DHT22;6179;51.748;8.728;2023-06-19T12:09:52;27.20;67.70
12233;DHT22;6179;51.748;8.728;2023-06-19T12:15:53;27.30;68.90
12233;DHT22;6179;51.748;8.728;2023-06-19T12:21:54;26.90;69.70
12233;DHT22;6179;51.748;8.728;2023-06-19T12:27:56;26.40;71.10
12233;DHT22;6179;51.748;8.728;2023-06-19T12:33:57;27.20;67.80
12233;DHT22;6179;51.748;8.728;2023-06-19T12:39:58;27.70;68.30
12233;DHT22;6179;51.748;8.728;2023-06-19T12:45:59;27.90;65.70
12233;DHT22;6179;51.748;8.728;2023-06-19T12:52:00;27.60;70.00
12233;DHT22;6179;51.748;8.728;2023-06-19T12:58:01;27.40;67.60
12233;DHT22;6179;51.748;8.728;2023-06-19T13:04:02;27.10;70.30
12233;DHT22;6179;51.748;8.728;2023-06-19T13:10:03;27.20;69.00
12233;DHT22;6179;51.748;8.728;2023-06-19T13:16:06;27.20;68.80
12233;DHT22;6179;51.748;8.728;2023-06-19T13:22:07;27.50;67.60
12233;DHT22;6179;51.748;8.728;2023-06-19T13:28:08;27.80;67.60
12233;DHT22;6179;51.748;8.728;2023-06-19T13:34:09;27.90;65.90
12233;DHT22;6179;51.748;8.728;2023-06-19T13:40:10;27.90;66.50
12233;DHT22;6179;51.748;8.728;2023-06-19T13:46:11;28.50;68.10
12233;DHT22;6179;51.748;8.728;2023-06-19T13:52:13;29.30;64.70
12233;DHT22;6179;51.748;8.728;2023-06-19T13:58:14;28.60;65.30
12233;DHT22;6179;51.748;8.728;2023-06-19T14:04:15;29.20;65.50
12233;DHT22;6179;51.748;8.728;2023-06-19T14:10:15;29.40;63.60
12233;DHT22;6179;51.748;8.728;2023-06-19T14:16:16;29.40;62.80
12233;DHT22;6179;51.748;8.728;2023-06-19T14:22:20;29.40;61.80
12233;DHT22;6179;51.748;8.728;2023-06-19T14:28:21;29.20;62.10
12233;DHT22;6179;51.748;8.728;2023-06-19T14:34:22;29.10;63.30
12233;DHT22;6179;51.748;8.728;2023-06-19T14:40:23;29.00;62.90
12233;DHT22;6179;51.748;8.728;2023-06-19T14:46:24;28.80;62.20
12233;DHT22;6179;51.748;8.728;2023-06-19T14:52:25;29.10;62.70
12233;DHT22;6179;51.748;8.728;2023-06-19T14:58:26;29.10;63.30
12233;DHT22;6179;51.748;8.728;2023-06-19T15:04:28;29.30;63.50
12233;DHT22;6179;51.748;8.728;2023-06-19T15:10:29;29.70;62.70
12233;DHT22;6179;51.748;8.728;2023-06-19T15:16:30;29.10;61.60
12233;DHT22;6179;51.748;8.728;2023-06-19T15:22:31;29.00;64.40
12233;DHT22;6179;51.748;8.728;2023-06-19T15:28:35;28.80;61.70
12233;DHT22;6179;51.748;8.728;2023-06-19T15:34:39;29.00;62.50
12233;DHT22;6179;51.748;8.728;2023-06-19T15:40:41;28.90;62.80
12233;DHT22;6179;51.748;8.728;2023-06-19T15:46:42;29.70;60.80
12233;DHT22;6179;51.748;8.728;2023-06-19T15:52:42;30.60;57.40
12233;DHT22;6179;51.748;8.728;2023-06-19T15:58:43;30.70;57.00
12233;DHT22;6179;51.748;8.728;2023-06-19T16:04:45;30.60;58.10
12233;DHT22;6179;51.748;8.728;2023-06-19T16:10:46;30.00;58.30
12233;DHT22;6179;51.748;8.728;2023-06-19T16:16:47;30.20;58.70
12233;DHT22;6179;51.748;8.728;2023-06-19T16:22:48;29.60;59.60
12233;DHT22;6179;51.748;8.728;2023-06-19T16:28:52;29.10;59.50
12233;DHT22;6179;51.748;8.728;2023-06-19T16:34:53;29.40;59.40
12233;DHT22;6179;51.748;8.728;2023-06-19T16:40:54;29.00;61.20
12233;DHT22;6179;51.748;8.728;2023-06-19T16:46:55;28.90;61.70
12233;DHT22;6179;51.748;8.728;2023-06-19T16:52:56;28.60;61.20
12233;DHT22;6179;51.748;8.728;2023-06-19T16:58:58;27.80;64.30
12233;DHT22;6179;51.748;8.728;2023-06-19T17:05:00;27.80;64.50
12233;DHT22;6179;51.748;8.728;2023-06-19T17:11:00;28.00;63.30
12233;DHT22;6179;51.748;8.728;2023-06-19T17:17:01;27.60;64.20
12233;DHT22;6179;51.748;8.728;2023-06-19T17:23:02;27.40;63.70
12233;DHT22;6179;51.748;8.728;2023-06-19T17:29:03;27.70;64.20
12233;DHT22;6179;51.748;8.728;2023-06-19T17:35:05;27.60;63.80
12233;DHT22;6179;51.748;8.728;2023-06-19T17:41:09;27.10;66.30
12233;DHT22;6179;51.748;8.728;2023-06-19T17:47:10;27.20;64.20
12233;DHT22;6179;51.748;8.728;2023-06-19T17:53:10;27.30;64.60
12233;DHT22;6179;51.748;8.728;2023-06-19T17:59:12;27.40;64.20
12233;DHT22;6179;51.748;8.728;2023-06-19T18:05:16;27.50;63.60
12233;DHT22;6179;51.748;8.728;2023-06-19T18:11:17;27.40;65.50
12233;DHT22;6179;51.748;8.728;2023-06-19T18:17:17;27.50;65.70
12233;DHT22;6179;51.748;8.728;2023-06-19T18:23:18;27.60;64.90
12233;DHT22;6179;51.748;8.728;2023-06-19T18:29:19;27.60;64.00
12233;DHT22;6179;51.748;8.728;2023-06-19T18:35:21;27.20;64.70
12233;DHT22;6179;51.748;8.728;2023-06-19T18:41:21;27.10;67.10
12233;DHT22;6179;51.748;8.728;2023-06-19T18:47:23;26.60;66.00
12233;DHT22;6179;51.748;8.728;2023-06-19T18:53:23;26.40;67.50
12233;DHT22;6179;51.748;8.728;2023-06-19T18:59:24;26.30;67.60
12233;DHT22;6179;51.748;8.728;2023-06-19T19:05:25;26.20;68.70
12233;DHT22;6179;51.748;8.728;2023-06-19T19:11:26;25.90;69.30
12233;DHT22;6179;51.748;8.728;2023-06-19T19:17:27;25.90;70.10
12233;DHT22;6179;51.748;8.728;2023-06-19T19:23:27;25.80;70.10
12233;DHT22;6179;51.748;8.728;2023-06-19T19:29:28;25.50;71.20
12233;DHT22;6179;51.748;8.728;2023-06-19T19:35:29;25.30;71.50
12233;DHT22;6179;51.748;8.728;2023-06-19T19:41:30;25.20;71.40
12233;DHT22;6179;51.748;8.728;2023-06-19T19:47:31;25.00;72.50
12233;DHT22;6179;51.748;8.728;2023-06-19T19:53:32;24.80;72.40
12233;DHT22;6179;51.748;8.728;2023-06-19T19:59:33;24.80;72.50
12233;DHT22;6179;51.748;8.728;2023-06-19T20:05:34;24.50;73.10
12233;DHT22;6179;51.748;8.728;2023-06-19T20:11:35;24.60;72.90
12233;DHT22;6179;51.748;8.728;2023-06-19T20:17:36;24.40;73.80
12233;DHT22;6179;51.748;8.728;2023-06-19T20:23:37;24.20;74.30
12233;DHT22;6179;51.748;8.728;2023-06-19T20:29:38;24.10;75.00
12233;DHT22;6179;51.748;8.728;2023-06-19T20:35:38;24.00;75.40
12233;DHT22;6179;51.748;8.728;2023-06-19T20:41:39;23.80;75.90
12233;DHT22;6179;51.748;8.728;2023-06-19T20:47:40;24.00;75.50
12233;DHT22;6179;51.748;8.728;2023-06-19T20:53:41;23.60;76.90
12233;DHT22;6179;51.748;8.728;2023-06-19T20:59:42;23.40;77.90
12233;DHT22;6179;51.748;8.728;2023-06-19T21:05:43;23.10;79.20
12233;DHT22;6179;51.748;8.728;2023-06-19T21:11:46;23.10;79.30
12233;DHT22;6179;51.748;8.728;2023-06-19T21:17:48;22.90;80.50
12233;DHT22;6179;51.748;8.728;2023-06-19T21:23:49;22.90;80.70
12233;DHT22;6179;51.748;8.728;2023-06-19T21:29:50;22.90;80.70
12233;DHT22;6179;51.748;8.728;2023-06-19T21:35:51;22.70;81.20
12233;DHT22;6179;51.748;8.728;2023-06-19T21:41:51;22.60;82.50
12233;DHT22;6179;51.748;8.728;2023-06-19T21:47:52;22.50;82.70
12233;DHT22;6179;51.748;8.728;2023-06-19T21:53:53;22.40;83.10
12233;DHT22;6179;51.748;8.728;2023-06-19T21:59:54;22.20;84.10
12233;DHT22;6179;51.748;8.728;2023-06-19T22:05:55;22.00;84.80
12233;DHT22;6179;51.748;8.728;2023-06-19T22:11:55;21.80;85.90
12233;DHT22;6179;51.748;8.728;2023-06-19T22:17:56;21.80;85.40
12233;DHT22;6179;51.748;8.728;2023-06-19T22:24:00;22.00;85.30
12233;DHT22;6179;51.748;8.728;2023-06-19T22:30:02;21.80;86.10
12233;DHT22;6179;51.748;8.728;2023-06-19T22:36:03;21.80;86.00
12233;DHT22;6179;51.748;8.728;2023-06-19T22:42:04;21.60;86.90
12233;DHT22;6179;51.748;8.728;2023-06-19T22:48:05;21.50;86.70
12233;DHT22;6179;51.748;8.728;2023-06-19T22:54:06;21.40;87.40
12233;DHT22;6179;51.748;8.728;2023-06-19T23:00:08;21.50;87.10
12233;DHT22;6179;51.748;8.728;2023-06-19T23:06:12;21.40;87.30
12233;DHT22;6179;51.748;8.728;2023-06-19T23:12:13;21.40;87.30
12233;DHT22;6179;51.748;8.728;2023-06-19T23:18:13;21.30;87.30
12233;DHT22;6179;51.748;8.728;2023-06-19T23:24:14;21.40;87.40
12233;DHT22;6179;51.748;8.728;2023-06-19T23:30:15;21.30;87.30
12233;DHT22;6179;51.748;8.728;2023-06-19T23:36:18;21.40;87.30
12233;DHT22;6179;51.748;8.728;2023-06-19T23:42:19;21.60;86.50
12233;DHT22;6179;51.748;8.728;2023-06-19T23:48:20;21.50;86.60
12233;DHT22;6179;51.748;8.728;2023-06-19T23:54:21;21.40;87.50
